This is the latest recevied weather packets stored in our database for station/object KG5MMT-15. If no packets are shown the sender has not sent any weather packets the latest 10 day(s).
| Time | Temp. | Humidity | Pressure | Rain* | Wind** | Luminosity | Snow |
|---|---|---|---|---|---|---|---|
| 1777438352 | 7.22° C | 24% | 0 hPa | 0 mm | - | - | - |
| 1777438052 | 6.67° C | 25% | 0 hPa | 0 mm | - | - | - |
| 1777437452 | 6.67° C | 25% | 0 hPa | 0 mm | - | - | - |
| 1777437152 | 6.67° C | 24% | 0 hPa | 0 mm | - | - | - |
| 1777436852 | 7.22° C | 24% | 0 hPa | 0 mm | - | - | - |
| 1777436552 | 7.22° C | 23% | 0 hPa | 0 mm | - | - | - |
| 1777435952 | 8.33° C | 22% | 0 hPa | 0 mm | - | - | - |
| 1777435652 | 8.89° C | 22% | 0 hPa | 0 mm | - | - | - |
| 1777435352 | 8.33° C | 23% | 0 hPa | 0 mm | - | - | - |
| 1777435052 | 8.89° C | 23% | 0 hPa | 0 mm | - | - | - |
| 1777434452 | 10° C | 20% | 0 hPa | 0 mm | - | - | - |
| 1777433852 | 10° C | 21% | 0 hPa | 0 mm | - | - | - |
| 1777433552 | 9.44° C | 19% | 0 hPa | 0 mm | - | - | - |
| 1777433252 | 9.44° C | 20% | 0 hPa | 0 mm | - | - | - |
| 1777432652 | 9.44° C | 20% | 0 hPa | 0 mm | - | - | - |
| 1777432052 | 8.89° C | 20% | 0 hPa | 0 mm | - | - | - |
| 1777428753 | 12.78° C | 13% | 0 hPa | 0 mm | - | - | - |
| 1777428453 | 13.33° C | 13% | 0 hPa | 0 mm | - | - | - |
| 1777427553 | 15.56° C | 11% | 0 hPa | 0 mm | - | - | - |
| 1777427253 | 16.11° C | 10% | 0 hPa | 0 mm | - | - | - |
| 1777426653 | 16.11° C | 10% | 0 hPa | 0 mm | - | - | - |
| 1777426053 | 16.11° C | 10% | 0 hPa | 0 mm | - | - | - |
| 1777425753 | 16.67° C | 10% | 0 hPa | 0 mm | - | - | - |
| 1777425453 | 16.67° C | 10% | 0 hPa | 0 mm | - | - | - |
| 1777425153 | 16.67° C | 9% | 0 hPa | 0 mm | - | - | - |
* Rain latest hour (hover to see other rain measurements)
** Current wind speed in m/s (hover to see current wind gust speed)